sensor_id;sensor_type;location;lat;lon;timestamp;P1;durP1;ratioP1;P2;durP2;ratioP2
52940;SDS011;62001;53.366;6.636;2022-11-02T00:02:03;12.00;;;2.63;;
52940;SDS011;62001;53.366;6.636;2022-11-02T00:04:29;12.65;;;2.42;;
52940;SDS011;62001;53.366;6.636;2022-11-02T00:06:55;12.20;;;2.20;;
52940;SDS011;62001;53.366;6.636;2022-11-02T00:09:21;9.23;;;2.25;;
52940;SDS011;62001;53.366;6.636;2022-11-02T00:11:46;9.60;;;2.45;;
52940;SDS011;62001;53.366;6.636;2022-11-02T00:14:12;15.95;;;2.50;;
52940;SDS011;62001;53.366;6.636;2022-11-02T00:16:38;16.08;;;2.70;;
52940;SDS011;62001;53.366;6.636;2022-11-02T00:19:04;9.98;;;2.67;;
52940;SDS011;62001;53.366;6.636;2022-11-02T00:21:32;11.13;;;2.30;;
52940;SDS011;62001;53.366;6.636;2022-11-02T00:23:59;9.50;;;2.28;;
52940;SDS011;62001;53.366;6.636;2022-11-02T00:26:26;13.85;;;2.80;;
52940;SDS011;62001;53.366;6.636;2022-11-02T00:28:53;13.48;;;3.05;;
52940;SDS011;62001;53.366;6.636;2022-11-02T00:31:19;16.08;;;2.63;;
52940;SDS011;62001;53.366;6.636;2022-11-02T00:33:45;9.55;;;2.20;;
52940;SDS011;62001;53.366;6.636;2022-11-02T00:36:11;13.20;;;2.50;;
52940;SDS011;62001;53.366;6.636;2022-11-02T00:38:36;9.50;;;1.92;;
52940;SDS011;62001;53.366;6.636;2022-11-02T00:41:02;10.43;;;2.38;;
52940;SDS011;62001;53.366;6.636;2022-11-02T00:43:28;9.70;;;2.40;;
52940;SDS011;62001;53.366;6.636;2022-11-02T00:45:54;10.00;;;2.13;;
52940;SDS011;62001;53.366;6.636;2022-11-02T00:48:20;6.20;;;1.90;;
52940;SDS011;62001;53.366;6.636;2022-11-02T00:50:46;8.60;;;2.10;;
52940;SDS011;62001;53.366;6.636;2022-11-02T00:53:12;8.68;;;2.20;;
52940;SDS011;62001;53.366;6.636;2022-11-02T00:55:38;11.40;;;2.30;;
52940;SDS011;62001;53.366;6.636;2022-11-02T00:58:03;6.82;;;1.98;;
52940;SDS011;62001;53.366;6.636;2022-11-02T01:00:29;8.95;;;2.00;;
52940;SDS011;62001;53.366;6.636;2022-11-02T01:02:58;10.02;;;2.10;;
52940;SDS011;62001;53.366;6.636;2022-11-02T01:05:25;8.07;;;1.77;;
52940;SDS011;62001;53.366;6.636;2022-11-02T01:07:51;6.82;;;1.50;;
52940;SDS011;62001;53.366;6.636;2022-11-02T01:10:17;5.18;;;1.70;;
52940;SDS011;62001;53.366;6.636;2022-11-02T01:12:43;5.25;;;1.60;;
52940;SDS011;62001;53.366;6.636;2022-11-02T01:15:09;6.97;;;1.70;;
52940;SDS011;62001;53.366;6.636;2022-11-02T01:17:35;7.80;;;2.00;;
52940;SDS011;62001;53.366;6.636;2022-11-02T01:20:01;5.40;;;1.50;;
52940;SDS011;62001;53.366;6.636;2022-11-02T01:22:29;6.38;;;1.30;;
52940;SDS011;62001;53.366;6.636;2022-11-02T01:24:55;7.03;;;1.63;;
52940;SDS011;62001;53.366;6.636;2022-11-02T01:27:21;7.68;;;1.70;;
52940;SDS011;62001;53.366;6.636;2022-11-02T01:29:47;7.13;;;1.55;;
52940;SDS011;62001;53.366;6.636;2022-11-02T01:32:13;5.45;;;1.45;;
52940;SDS011;62001;53.366;6.636;2022-11-02T01:34:38;5.82;;;1.52;;
52940;SDS011;62001;53.366;6.636;2022-11-02T01:37:04;4.70;;;1.25;;
52940;SDS011;62001;53.366;6.636;2022-11-02T01:39:30;5.10;;;1.25;;
52940;SDS011;62001;53.366;6.636;2022-11-02T01:41:56;4.72;;;1.30;;
52940;SDS011;62001;53.366;6.636;2022-11-02T01:46:53;3.50;;;1.17;;
52940;SDS011;62001;53.366;6.636;2022-11-02T01:49:26;4.30;;;1.10;;
52940;SDS011;62001;53.366;6.636;2022-11-02T01:51:56;7.85;;;1.35;;
52940;SDS011;62001;53.366;6.636;2022-11-02T01:54:33;6.57;;;1.30;;
52940;SDS011;62001;53.366;6.636;2022-11-02T01:57:04;5.63;;;1.25;;
52940;SDS011;62001;53.366;6.636;2022-11-02T01:59:35;3.80;;;1.23;;
52940;SDS011;62001;53.366;6.636;2022-11-02T02:02:06;5.70;;;1.10;;
52940;SDS011;62001;53.366;6.636;2022-11-02T02:04:38;5.85;;;1.10;;
52940;SDS011;62001;53.366;6.636;2022-11-02T02:07:04;3.45;;;1.15;;
52940;SDS011;62001;53.366;6.636;2022-11-02T02:09:30;2.88;;;1.08;;
52940;SDS011;62001;53.366;6.636;2022-11-02T02:11:56;5.63;;;1.35;;
52940;SDS011;62001;53.366;6.636;2022-11-02T02:14:22;3.65;;;1.40;;
52940;SDS011;62001;53.366;6.636;2022-11-02T02:19:17;6.55;;;1.40;;
52940;SDS011;62001;53.366;6.636;2022-11-02T02:22:21;6.47;;;1.27;;
52940;SDS011;62001;53.366;6.636;2022-11-02T02:31:06;3.55;;;0.70;;
52940;SDS011;62001;53.366;6.636;2022-11-02T02:36:28;4.05;;;0.88;;
52940;SDS011;62001;53.366;6.636;2022-11-02T02:39:34;1.70;;;0.57;;
52940;SDS011;62001;53.366;6.636;2022-11-02T02:42:22;2.85;;;0.65;;
52940;SDS011;62001;53.366;6.636;2022-11-02T02:45:18;4.72;;;0.82;;
52940;SDS011;62001;53.366;6.636;2022-11-02T02:47:50;3.25;;;0.75;;
52940;SDS011;62001;53.366;6.636;2022-11-02T02:50:30;2.92;;;0.80;;
52940;SDS011;62001;53.366;6.636;2022-11-02T02:53:05;2.22;;;1.10;;
52940;SDS011;62001;53.366;6.636;2022-11-02T02:55:33;5.72;;;1.70;;
52940;SDS011;62001;53.366;6.636;2022-11-02T02:58:04;8.43;;;2.00;;
52940;SDS011;62001;53.366;6.636;2022-11-02T03:00:35;7.45;;;1.80;;
52940;SDS011;62001;53.366;6.636;2022-11-02T03:03:02;7.88;;;1.85;;
52940;SDS011;62001;53.366;6.636;2022-11-02T03:05:29;7.65;;;2.00;;
52940;SDS011;62001;53.366;6.636;2022-11-02T03:08:01;7.22;;;1.95;;
52940;SDS011;62001;53.366;6.636;2022-11-02T03:13:30;8.88;;;2.13;;
52940;SDS011;62001;53.366;6.636;2022-11-02T03:18:54;5.85;;;2.03;;
52940;SDS011;62001;53.366;6.636;2022-11-02T03:21:41;6.28;;;1.85;;
52940;SDS011;62001;53.366;6.636;2022-11-02T03:30:12;5.72;;;1.40;;
52940;SDS011;62001;53.366;6.636;2022-11-02T03:35:29;8.57;;;1.80;;
52940;SDS011;62001;53.366;6.636;2022-11-02T03:38:00;8.60;;;2.00;;
52940;SDS011;62001;53.366;6.636;2022-11-02T03:40:38;6.65;;;1.50;;
52940;SDS011;62001;53.366;6.636;2022-11-02T03:43:08;5.15;;;1.30;;
52940;SDS011;62001;53.366;6.636;2022-11-02T03:45:42;8.38;;;1.67;;
52940;SDS011;62001;53.366;6.636;2022-11-02T03:48:11;5.20;;;1.60;;
52940;SDS011;62001;53.366;6.636;2022-11-02T03:50:43;6.32;;;1.42;;
52940;SDS011;62001;53.366;6.636;2022-11-02T03:53:20;6.47;;;1.50;;
52940;SDS011;62001;53.366;6.636;2022-11-02T03:56:06;6.72;;;1.13;;
52940;SDS011;62001;53.366;6.636;2022-11-02T03:58:36;4.88;;;1.10;;
52940;SDS011;62001;53.366;6.636;2022-11-02T04:01:02;6.05;;;1.58;;
52940;SDS011;62001;53.366;6.636;2022-11-02T04:03:32;11.10;;;1.80;;
52940;SDS011;62001;53.366;6.636;2022-11-02T04:06:00;9.10;;;1.52;;
52940;SDS011;62001;53.366;6.636;2022-11-02T04:08:36;6.65;;;1.50;;
52940;SDS011;62001;53.366;6.636;2022-11-02T04:11:05;7.80;;;1.40;;
52940;SDS011;62001;53.366;6.636;2022-11-02T04:13:50;6.07;;;1.55;;
52940;SDS011;62001;53.366;6.636;2022-11-02T04:16:34;6.45;;;1.25;;
52940;SDS011;62001;53.366;6.636;2022-11-02T04:19:00;10.13;;;1.45;;
52940;SDS011;62001;53.366;6.636;2022-11-02T04:21:44;7.07;;;1.70;;
52940;SDS011;62001;53.366;6.636;2022-11-02T04:24:29;8.52;;;1.70;;
52940;SDS011;62001;53.366;6.636;2022-11-02T04:27:13;11.23;;;1.70;;
52940;SDS011;62001;53.366;6.636;2022-11-02T04:29:39;7.22;;;1.48;;
52940;SDS011;62001;53.366;6.636;2022-11-02T04:32:05;10.25;;;2.05;;
52940;SDS011;62001;53.366;6.636;2022-11-02T04:34:31;8.40;;;1.88;;
52940;SDS011;62001;53.366;6.636;2022-11-02T04:36:56;13.85;;;2.10;;
52940;SDS011;62001;53.366;6.636;2022-11-02T04:39:22;12.32;;;2.15;;
52940;SDS011;62001;53.366;6.636;2022-11-02T04:41:48;12.10;;;1.83;;
52940;SDS011;62001;53.366;6.636;2022-11-02T04:44:14;15.55;;;2.45;;
52940;SDS011;62001;53.366;6.636;2022-11-02T04:46:40;12.15;;;2.33;;
52940;SDS011;62001;53.366;6.636;2022-11-02T04:49:08;10.73;;;1.92;;
52940;SDS011;62001;53.366;6.636;2022-11-02T04:51:35;10.73;;;2.00;;
52940;SDS011;62001;53.366;6.636;2022-11-02T04:54:01;7.90;;;1.98;;
52940;SDS011;62001;53.366;6.636;2022-11-02T04:56:28;13.13;;;2.58;;
52940;SDS011;62001;53.366;6.636;2022-11-02T04:58:55;11.95;;;2.35;;
52940;SDS011;62001;53.366;6.636;2022-11-02T05:01:22;10.90;;;2.10;;
52940;SDS011;62001;53.366;6.636;2022-11-02T05:03:50;9.88;;;2.17;;
52940;SDS011;62001;53.366;6.636;2022-11-02T05:06:17;15.02;;;1.88;;
52940;SDS011;62001;53.366;6.636;2022-11-02T05:08:44;12.43;;;1.98;;
52940;SDS011;62001;53.366;6.636;2022-11-02T05:11:10;8.85;;;1.73;;
52940;SDS011;62001;53.366;6.636;2022-11-02T05:13:37;13.75;;;2.20;;
52940;SDS011;62001;53.366;6.636;2022-11-02T05:16:04;9.35;;;1.95;;
52940;SDS011;62001;53.366;6.636;2022-11-02T05:18:31;10.68;;;2.45;;
52940;SDS011;62001;53.366;6.636;2022-11-02T05:20:57;10.82;;;2.22;;
52940;SDS011;62001;53.366;6.636;2022-11-02T05:23:24;7.78;;;1.95;;
52940;SDS011;62001;53.366;6.636;2022-11-02T05:25:58;14.80;;;2.63;;
52940;SDS011;62001;53.366;6.636;2022-11-02T05:28:25;9.93;;;2.53;;
52940;SDS011;62001;53.366;6.636;2022-11-02T05:30:52;12.63;;;2.83;;
52940;SDS011;62001;53.366;6.636;2022-11-02T05:33:18;13.00;;;2.80;;
52940;SDS011;62001;53.366;6.636;2022-11-02T05:35:45;12.68;;;2.70;;
52940;SDS011;62001;53.366;6.636;2022-11-02T05:38:11;12.00;;;2.97;;
52940;SDS011;62001;53.366;6.636;2022-11-02T05:40:37;11.32;;;2.47;;
52940;SDS011;62001;53.366;6.636;2022-11-02T05:43:05;8.05;;;2.15;;
52940;SDS011;62001;53.366;6.636;2022-11-02T05:45:33;9.43;;;2.60;;
52940;SDS011;62001;53.366;6.636;2022-11-02T05:48:00;11.38;;;2.70;;
52940;SDS011;62001;53.366;6.636;2022-11-02T05:50:27;13.20;;;2.85;;
52940;SDS011;62001;53.366;6.636;2022-11-02T05:52:54;9.07;;;2.40;;
52940;SDS011;62001;53.366;6.636;2022-11-02T05:55:20;11.43;;;2.40;;
52940;SDS011;62001;53.366;6.636;2022-11-02T05:57:49;9.57;;;2.28;;
52940;SDS011;62001;53.366;6.636;2022-11-02T06:00:17;15.38;;;3.00;;
52940;SDS011;62001;53.366;6.636;2022-11-02T06:02:43;10.88;;;2.60;;
52940;SDS011;62001;53.366;6.636;2022-11-02T06:05:09;12.57;;;2.83;;
52940;SDS011;62001;53.366;6.636;2022-11-02T06:07:34;15.45;;;2.85;;
52940;SDS011;62001;53.366;6.636;2022-11-02T06:10:00;12.85;;;3.03;;
52940;SDS011;62001;53.366;6.636;2022-11-02T06:12:27;12.60;;;3.05;;
52940;SDS011;62001;53.366;6.636;2022-11-02T06:14:52;15.27;;;3.28;;
52940;SDS011;62001;53.366;6.636;2022-11-02T06:17:18;10.32;;;2.35;;
52940;SDS011;62001;53.366;6.636;2022-11-02T06:19:44;9.68;;;2.53;;
52940;SDS011;62001;53.366;6.636;2022-11-02T06:22:10;13.10;;;2.70;;
52940;SDS011;62001;53.366;6.636;2022-11-02T06:24:35;13.23;;;2.85;;
52940;SDS011;62001;53.366;6.636;2022-11-02T06:27:01;13.70;;;2.95;;
52940;SDS011;62001;53.366;6.636;2022-11-02T06:29:27;13.13;;;2.67;;
52940;SDS011;62001;53.366;6.636;2022-11-02T06:31:53;13.50;;;2.40;;
52940;SDS011;62001;53.366;6.636;2022-11-02T06:34:19;13.15;;;2.47;;
52940;SDS011;62001;53.366;6.636;2022-11-02T06:36:44;13.85;;;2.53;;
52940;SDS011;62001;53.366;6.636;2022-11-02T06:39:10;10.45;;;2.80;;
52940;SDS011;62001;53.366;6.636;2022-11-02T06:41:36;11.50;;;3.13;;
52940;SDS011;62001;53.366;6.636;2022-11-02T06:44:02;13.27;;;2.90;;
52940;SDS011;62001;53.366;6.636;2022-11-02T06:46:27;17.13;;;2.97;;
52940;SDS011;62001;53.366;6.636;2022-11-02T06:48:53;16.50;;;2.63;;
52940;SDS011;62001;53.366;6.636;2022-11-02T06:51:19;16.65;;;3.10;;
52940;SDS011;62001;53.366;6.636;2022-11-02T06:53:45;13.73;;;2.90;;
52940;SDS011;62001;53.366;6.636;2022-11-02T06:56:10;12.60;;;3.15;;
52940;SDS011;62001;53.366;6.636;2022-11-02T06:58:37;11.10;;;2.65;;
52940;SDS011;62001;53.366;6.636;2022-11-02T07:01:04;14.23;;;2.60;;
52940;SDS011;62001;53.366;6.636;2022-11-02T07:03:34;15.43;;;2.45;;
52940;SDS011;62001;53.366;6.636;2022-11-02T07:06:00;16.13;;;2.72;;
52940;SDS011;62001;53.366;6.636;2022-11-02T07:08:27;11.40;;;2.20;;
52940;SDS011;62001;53.366;6.636;2022-11-02T07:10:53;12.48;;;2.40;;
52940;SDS011;62001;53.366;6.636;2022-11-02T07:13:20;11.82;;;2.25;;
52940;SDS011;62001;53.366;6.636;2022-11-02T07:15:46;11.93;;;2.30;;
52940;SDS011;62001;53.366;6.636;2022-11-02T07:18:12;7.80;;;1.58;;
52940;SDS011;62001;53.366;6.636;2022-11-02T07:20:38;9.00;;;1.77;;
52940;SDS011;62001;53.366;6.636;2022-11-02T07:23:04;7.47;;;1.70;;
52940;SDS011;62001;53.366;6.636;2022-11-02T07:25:30;13.57;;;2.22;;
52940;SDS011;62001;53.366;6.636;2022-11-02T07:27:56;7.85;;;1.88;;
52940;SDS011;62001;53.366;6.636;2022-11-02T07:30:26;11.80;;;1.73;;
52940;SDS011;62001;53.366;6.636;2022-11-02T07:32:53;10.63;;;1.83;;
52940;SDS011;62001;53.366;6.636;2022-11-02T07:35:19;11.02;;;1.77;;
52940;SDS011;62001;53.366;6.636;2022-11-02T07:37:59;10.48;;;1.75;;
52940;SDS011;62001;53.366;6.636;2022-11-02T07:40:28;11.65;;;2.17;;
52940;SDS011;62001;53.366;6.636;2022-11-02T07:42:55;15.80;;;2.33;;
52940;SDS011;62001;53.366;6.636;2022-11-02T07:45:22;10.77;;;2.40;;
52940;SDS011;62001;53.366;6.636;2022-11-02T07:47:48;9.55;;;2.00;;
52940;SDS011;62001;53.366;6.636;2022-11-02T07:50:15;8.23;;;1.88;;
52940;SDS011;62001;53.366;6.636;2022-11-02T07:55:12;11.13;;;1.95;;
52940;SDS011;62001;53.366;6.636;2022-11-02T07:57:39;8.05;;;1.80;;
52940;SDS011;62001;53.366;6.636;2022-11-02T08:00:05;7.28;;;1.88;;
52940;SDS011;62001;53.366;6.636;2022-11-02T08:02:31;8.30;;;1.90;;
52940;SDS011;62001;53.366;6.636;2022-11-02T08:04:57;7.32;;;1.80;;
52940;SDS011;62001;53.366;6.636;2022-11-02T08:07:23;8.93;;;1.77;;
52940;SDS011;62001;53.366;6.636;2022-11-02T08:09:48;17.88;;;2.20;;
52940;SDS011;62001;53.366;6.636;2022-11-02T08:12:14;7.70;;;1.80;;
52940;SDS011;62001;53.366;6.636;2022-11-02T08:14:40;13.35;;;2.10;;
52940;SDS011;62001;53.366;6.636;2022-11-02T08:17:06;8.57;;;1.77;;
52940;SDS011;62001;53.366;6.636;2022-11-02T08:19:32;10.35;;;2.10;;
52940;SDS011;62001;53.366;6.636;2022-11-02T08:21:58;13.15;;;1.90;;
52940;SDS011;62001;53.366;6.636;2022-11-02T08:24:24;8.23;;;1.85;;
52940;SDS011;62001;53.366;6.636;2022-11-02T08:26:49;10.27;;;2.97;;
52940;SDS011;62001;53.366;6.636;2022-11-02T08:29:15;12.20;;;2.38;;
52940;SDS011;62001;53.366;6.636;2022-11-02T08:31:41;11.18;;;2.97;;
52940;SDS011;62001;53.366;6.636;2022-11-02T08:34:07;12.88;;;3.15;;
52940;SDS011;62001;53.366;6.636;2022-11-02T08:36:34;9.70;;;3.50;;
52940;SDS011;62001;53.366;6.636;2022-11-02T08:39:00;8.40;;;2.90;;
52940;SDS011;62001;53.366;6.636;2022-11-02T08:41:26;7.68;;;2.90;;
52940;SDS011;62001;53.366;6.636;2022-11-02T08:43:52;5.75;;;1.85;;
52940;SDS011;62001;53.366;6.636;2022-11-02T08:46:18;9.90;;;3.20;;
52940;SDS011;62001;53.366;6.636;2022-11-02T08:48:44;5.32;;;1.80;;
52940;SDS011;62001;53.366;6.636;2022-11-02T08:51:10;7.45;;;2.08;;
52940;SDS011;62001;53.366;6.636;2022-11-02T08:53:36;6.85;;;2.00;;
52940;SDS011;62001;53.366;6.636;2022-11-02T08:56:01;9.77;;;2.90;;
52940;SDS011;62001;53.366;6.636;2022-11-02T08:58:27;7.00;;;1.70;;
52940;SDS011;62001;53.366;6.636;2022-11-02T09:00:53;8.10;;;1.90;;
52940;SDS011;62001;53.366;6.636;2022-11-02T09:03:19;8.45;;;1.98;;
52940;SDS011;62001;53.366;6.636;2022-11-02T09:05:48;9.18;;;2.15;;
52940;SDS011;62001;53.366;6.636;2022-11-02T09:08:15;10.95;;;2.00;;
52940;SDS011;62001;53.366;6.636;2022-11-02T09:10:43;11.95;;;1.70;;
52940;SDS011;62001;53.366;6.636;2022-11-02T09:13:11;8.63;;;1.48;;
52940;SDS011;62001;53.366;6.636;2022-11-02T09:15:38;10.63;;;2.05;;
52940;SDS011;62001;53.366;6.636;2022-11-02T09:18:04;13.00;;;2.13;;
52940;SDS011;62001;53.366;6.636;2022-11-02T09:20:31;13.70;;;2.25;;
52940;SDS011;62001;53.366;6.636;2022-11-02T09:22:58;18.75;;;2.85;;
52940;SDS011;62001;53.366;6.636;2022-11-02T09:25:24;13.63;;;2.65;;
52940;SDS011;62001;53.366;6.636;2022-11-02T09:27:53;12.68;;;2.33;;
52940;SDS011;62001;53.366;6.636;2022-11-02T09:30:21;13.23;;;2.55;;
52940;SDS011;62001;53.366;6.636;2022-11-02T09:32:54;13.43;;;2.97;;
52940;SDS011;62001;53.366;6.636;2022-11-02T09:35:21;18.63;;;3.50;;
52940;SDS011;62001;53.366;6.636;2022-11-02T09:37:47;15.48;;;2.58;;
52940;SDS011;62001;53.366;6.636;2022-11-02T09:40:13;13.32;;;3.03;;
52940;SDS011;62001;53.366;6.636;2022-11-02T09:45:22;17.48;;;2.80;;
52940;SDS011;62001;53.366;6.636;2022-11-02T09:47:49;15.35;;;2.90;;
52940;SDS011;62001;53.366;6.636;2022-11-02T09:50:38;13.82;;;2.50;;
52940;SDS011;62001;53.366;6.636;2022-11-02T09:53:12;17.00;;;3.15;;
52940;SDS011;62001;53.366;6.636;2022-11-02T09:55:45;19.02;;;2.95;;
52940;SDS011;62001;53.366;6.636;2022-11-02T09:58:17;17.58;;;3.63;;
52940;SDS011;62001;53.366;6.636;2022-11-02T10:00:48;14.65;;;4.38;;
52940;SDS011;62001;53.366;6.636;2022-11-02T10:06:21;19.10;;;5.90;;
52940;SDS011;62001;53.366;6.636;2022-11-02T10:09:01;16.02;;;3.70;;
52940;SDS011;62001;53.366;6.636;2022-11-02T10:14:26;19.05;;;3.80;;
52940;SDS011;62001;53.366;6.636;2022-11-02T10:17:18;14.82;;;3.25;;
52940;SDS011;62001;53.366;6.636;2022-11-02T10:19:55;18.10;;;4.90;;
52940;SDS011;62001;53.366;6.636;2022-11-02T10:22:27;18.17;;;3.75;;
52940;SDS011;62001;53.366;6.636;2022-11-02T10:24:59;16.17;;;3.75;;
52940;SDS011;62001;53.366;6.636;2022-11-02T10:27:29;14.43;;;3.55;;
52940;SDS011;62001;53.366;6.636;2022-11-02T10:32:43;13.90;;;3.50;;
52940;SDS011;62001;53.366;6.636;2022-11-02T10:35:15;14.68;;;2.90;;
52940;SDS011;62001;53.366;6.636;2022-11-02T10:38:03;12.55;;;2.60;;
52940;SDS011;62001;53.366;6.636;2022-11-02T10:43:14;11.27;;;2.53;;
52940;SDS011;62001;53.366;6.636;2022-11-02T10:51:33;11.18;;;2.25;;
52940;SDS011;62001;53.366;6.636;2022-11-02T10:53:59;13.63;;;2.80;;
52940;SDS011;62001;53.366;6.636;2022-11-02T10:56:28;19.27;;;2.85;;
52940;SDS011;62001;53.366;6.636;2022-11-02T11:01:25;11.38;;;2.35;;
52940;SDS011;62001;53.366;6.636;2022-11-02T11:04:05;10.32;;;2.50;;
52940;SDS011;62001;53.366;6.636;2022-11-02T11:06:43;12.05;;;2.17;;
52940;SDS011;62001;53.366;6.636;2022-11-02T11:09:16;14.15;;;2.30;;
52940;SDS011;62001;53.366;6.636;2022-11-02T11:14:50;9.25;;;2.40;;
52940;SDS011;62001;53.366;6.636;2022-11-02T11:17:35;13.90;;;2.70;;
52940;SDS011;62001;53.366;6.636;2022-11-02T11:20:04;16.38;;;2.60;;
52940;SDS011;62001;53.366;6.636;2022-11-02T11:22:37;18.80;;;2.67;;
52940;SDS011;62001;53.366;6.636;2022-11-02T11:27:48;12.63;;;2.13;;
52940;SDS011;62001;53.366;6.636;2022-11-02T11:32:58;17.10;;;2.30;;
52940;SDS011;62001;53.366;6.636;2022-11-02T11:35:33;12.63;;;2.78;;
52940;SDS011;62001;53.366;6.636;2022-11-02T11:38:03;11.02;;;1.83;;
52940;SDS011;62001;53.366;6.636;2022-11-02T11:40:36;9.65;;;2.20;;
52940;SDS011;62001;53.366;6.636;2022-11-02T11:43:04;8.45;;;2.10;;
52940;SDS011;62001;53.366;6.636;2022-11-02T11:45:36;10.35;;;2.30;;
52940;SDS011;62001;53.366;6.636;2022-11-02T11:50:46;8.20;;;1.90;;
52940;SDS011;62001;53.366;6.636;2022-11-02T11:53:17;11.18;;;1.80;;
52940;SDS011;62001;53.366;6.636;2022-11-02T11:55:46;13.73;;;2.50;;
52940;SDS011;62001;53.366;6.636;2022-11-02T12:00:43;9.30;;;2.00;;
52940;SDS011;62001;53.366;6.636;2022-11-02T12:03:10;14.65;;;2.55;;
52940;SDS011;62001;53.366;6.636;2022-11-02T12:13:25;12.32;;;2.05;;
52940;SDS011;62001;53.366;6.636;2022-11-02T12:24:14;10.73;;;2.00;;
52940;SDS011;62001;53.366;6.636;2022-11-02T12:41:20;8.80;;;1.98;;
52940;SDS011;62001;53.366;6.636;2022-11-02T12:44:21;18.02;;;2.35;;
52940;SDS011;62001;53.366;6.636;2022-11-02T12:46:44;8.35;;;2.03;;
52940;SDS011;62001;53.366;6.636;2022-11-02T12:49:35;13.75;;;2.45;;
52940;SDS011;62001;53.366;6.636;2022-11-02T12:54:54;9.18;;;2.10;;
52940;SDS011;62001;53.366;6.636;2022-11-02T12:57:23;12.38;;;2.20;;
52940;SDS011;62001;53.366;6.636;2022-11-02T12:59:57;14.52;;;2.38;;
52940;SDS011;62001;53.366;6.636;2022-11-02T13:05:16;10.90;;;1.95;;
52940;SDS011;62001;53.366;6.636;2022-11-02T13:07:49;8.88;;;2.33;;
52940;SDS011;62001;53.366;6.636;2022-11-02T13:10:25;8.15;;;1.75;;
52940;SDS011;62001;53.366;6.636;2022-11-02T13:12:56;11.88;;;2.33;;
52940;SDS011;62001;53.366;6.636;2022-11-02T13:15:24;12.50;;;2.35;;
52940;SDS011;62001;53.366;6.636;2022-11-02T13:17:53;8.93;;;2.15;;
52940;SDS011;62001;53.366;6.636;2022-11-02T13:20:38;11.05;;;2.20;;
52940;SDS011;62001;53.366;6.636;2022-11-02T13:25:49;14.27;;;2.38;;
52940;SDS011;62001;53.366;6.636;2022-11-02T13:28:36;11.15;;;2.17;;
52940;SDS011;62001;53.366;6.636;2022-11-02T13:31:11;16.35;;;3.03;;
52940;SDS011;62001;53.366;6.636;2022-11-02T13:33:58;11.95;;;2.60;;
52940;SDS011;62001;53.366;6.636;2022-11-02T13:36:28;12.40;;;2.00;;
52940;SDS011;62001;53.366;6.636;2022-11-02T13:41:46;10.95;;;2.30;;
52940;SDS011;62001;53.366;6.636;2022-11-02T13:50:27;9.88;;;1.98;;
52940;SDS011;62001;53.366;6.636;2022-11-02T13:52:57;9.70;;;2.27;;
52940;SDS011;62001;53.366;6.636;2022-11-02T13:56:11;12.98;;;2.67;;
52940;SDS011;62001;53.366;6.636;2022-11-02T14:00:59;16.65;;;2.72;;
52940;SDS011;62001;53.366;6.636;2022-11-02T14:03:29;18.02;;;2.90;;
52940;SDS011;62001;53.366;6.636;2022-11-02T14:05:59;16.13;;;2.53;;
52940;SDS011;62001;53.366;6.636;2022-11-02T14:08:34;14.23;;;2.50;;
52940;SDS011;62001;53.366;6.636;2022-11-02T14:11:22;11.25;;;2.22;;
52940;SDS011;62001;53.366;6.636;2022-11-02T14:14:19;11.27;;;2.38;;
52940;SDS011;62001;53.366;6.636;2022-11-02T14:37:43;12.60;;;2.47;;
52940;SDS011;62001;53.366;6.636;2022-11-02T14:40:32;11.50;;;2.00;;
52940;SDS011;62001;53.366;6.636;2022-11-02T14:46:54;13.23;;;2.58;;
52940;SDS011;62001;53.366;6.636;2022-11-02T14:49:26;10.80;;;2.67;;
52940;SDS011;62001;53.366;6.636;2022-11-02T14:51:59;12.50;;;2.30;;
52940;SDS011;62001;53.366;6.636;2022-11-02T14:54:35;13.65;;;2.22;;
52940;SDS011;62001;53.366;6.636;2022-11-02T15:00:16;7.78;;;1.95;;
52940;SDS011;62001;53.366;6.636;2022-11-02T15:02:46;12.27;;;2.13;;
52940;SDS011;62001;53.366;6.636;2022-11-02T15:05:29;12.90;;;2.15;;
52940;SDS011;62001;53.366;6.636;2022-11-02T15:10:45;13.50;;;1.98;;
52940;SDS011;62001;53.366;6.636;2022-11-02T15:15:43;18.25;;;2.63;;
52940;SDS011;62001;53.366;6.636;2022-11-02T15:23:42;16.40;;;2.72;;
52940;SDS011;62001;53.366;6.636;2022-11-02T15:26:10;10.25;;;1.80;;
52940;SDS011;62001;53.366;6.636;2022-11-02T15:28:42;12.00;;;2.17;;
52940;SDS011;62001;53.366;6.636;2022-11-02T15:31:19;14.93;;;2.78;;
52940;SDS011;62001;53.366;6.636;2022-11-02T15:33:47;8.65;;;2.22;;
52940;SDS011;62001;53.366;6.636;2022-11-02T15:36:23;9.45;;;2.00;;
52940;SDS011;62001;53.366;6.636;2022-11-02T15:38:56;8.57;;;1.95;;
52940;SDS011;62001;53.366;6.636;2022-11-02T15:56:09;12.10;;;2.38;;
52940;SDS011;62001;53.366;6.636;2022-11-02T16:03:46;11.48;;;2.30;;
52940;SDS011;62001;53.366;6.636;2022-11-02T16:06:25;14.45;;;3.00;;
52940;SDS011;62001;53.366;6.636;2022-11-02T16:09:01;13.15;;;2.50;;
52940;SDS011;62001;53.366;6.636;2022-11-02T16:14:55;16.50;;;3.10;;
52940;SDS011;62001;53.366;6.636;2022-11-02T16:17:26;11.15;;;2.47;;
52940;SDS011;62001;53.366;6.636;2022-11-02T16:22:45;10.15;;;2.42;;
52940;SDS011;62001;53.366;6.636;2022-11-02T16:25:18;11.75;;;2.50;;
52940;SDS011;62001;53.366;6.636;2022-11-02T16:27:55;12.02;;;2.80;;
52940;SDS011;62001;53.366;6.636;2022-11-02T16:30:21;9.95;;;2.28;;
52940;SDS011;62001;53.366;6.636;2022-11-02T16:32:49;14.63;;;2.88;;
52940;SDS011;62001;53.366;6.636;2022-11-02T16:35:29;14.23;;;2.80;;
52940;SDS011;62001;53.366;6.636;2022-11-02T16:37:56;19.00;;;3.17;;
52940;SDS011;62001;53.366;6.636;2022-11-02T16:40:22;15.07;;;3.33;;
52940;SDS011;62001;53.366;6.636;2022-11-02T16:42:48;15.68;;;3.25;;
52940;SDS011;62001;53.366;6.636;2022-11-02T16:45:33;13.40;;;2.80;;
52940;SDS011;62001;53.366;6.636;2022-11-02T16:48:02;13.23;;;3.17;;
52940;SDS011;62001;53.366;6.636;2022-11-02T16:51:04;15.23;;;3.08;;
52940;SDS011;62001;53.366;6.636;2022-11-02T16:53:36;15.95;;;2.83;;
52940;SDS011;62001;53.366;6.636;2022-11-02T16:58:58;12.95;;;3.15;;
52940;SDS011;62001;53.366;6.636;2022-11-02T17:01:28;15.30;;;3.00;;
52940;SDS011;62001;53.366;6.636;2022-11-02T17:04:21;13.40;;;2.90;;
52940;SDS011;62001;53.366;6.636;2022-11-02T17:06:50;12.57;;;2.97;;
52940;SDS011;62001;53.366;6.636;2022-11-02T17:09:22;15.18;;;3.38;;
52940;SDS011;62001;53.366;6.636;2022-11-02T17:11:49;15.85;;;2.85;;
52940;SDS011;62001;53.366;6.636;2022-11-02T17:14:17;10.52;;;3.30;;
52940;SDS011;62001;53.366;6.636;2022-11-02T17:17:04;18.08;;;3.50;;
52940;SDS011;62001;53.366;6.636;2022-11-02T17:22:08;17.10;;;3.22;;
52940;SDS011;62001;53.366;6.636;2022-11-02T17:24:36;12.82;;;2.85;;
52940;SDS011;62001;53.366;6.636;2022-11-02T17:27:15;17.30;;;3.45;;
52940;SDS011;62001;53.366;6.636;2022-11-02T17:29:49;11.52;;;2.72;;
52940;SDS011;62001;53.366;6.636;2022-11-02T17:32:16;16.60;;;3.28;;
52940;SDS011;62001;53.366;6.636;2022-11-02T17:34:53;11.20;;;3.00;;
52940;SDS011;62001;53.366;6.636;2022-11-02T17:37:28;12.05;;;3.20;;
52940;SDS011;62001;53.366;6.636;2022-11-02T17:39:55;15.38;;;3.85;;
52940;SDS011;62001;53.366;6.636;2022-11-02T17:42:24;16.83;;;3.15;;
52940;SDS011;62001;53.366;6.636;2022-11-02T17:45:18;16.20;;;3.47;;
52940;SDS011;62001;53.366;6.636;2022-11-02T17:47:46;14.77;;;3.00;;
52940;SDS011;62001;53.366;6.636;2022-11-02T17:50:12;14.05;;;3.58;;
52940;SDS011;62001;53.366;6.636;2022-11-02T17:52:38;16.50;;;3.25;;
52940;SDS011;62001;53.366;6.636;2022-11-02T17:55:05;14.40;;;3.10;;
52940;SDS011;62001;53.366;6.636;2022-11-02T17:57:34;17.30;;;3.40;;
52940;SDS011;62001;53.366;6.636;2022-11-02T18:00:00;16.35;;;3.22;;
52940;SDS011;62001;53.366;6.636;2022-11-02T18:02:25;12.95;;;3.00;;
52940;SDS011;62001;53.366;6.636;2022-11-02T18:04:51;12.63;;;3.30;;
52940;SDS011;62001;53.366;6.636;2022-11-02T18:07:18;10.60;;;2.72;;